aviador You're here:

LFLN Decoded Metar

ST.-YAN in FRANCE
Report Time2018-06-21 21:30:00
UTC Time2018-06-21 21:54:54
Flight Rules vfr VFR
Wind360° at 08 kt
W.Decomp.*RWY 33: 6.9 kt HW 4.0 kt RCW
Visibility9999 m
Phenomena:N/A
Clouds:Overcast 034 Hf
Expected CloudBase > 2,800 ft AGL from Temp-Dew spread
Ceiling3,400 ft
Temp19°C (ISA +6)
Dew Point12°C (64% RH)
AAT16.7°C
QNH1022 hPa
Density Alt1,345 ft
Elevation801 ft
Report Wrong Elevation
Raw Report
METAR LFLN 212130Z AUTO 36008KT 9999 OVC034 19/12 Q1022 NOSIG=

Extra information for LFLN:More info

Metar Taf Metar & Taf Last 4 Metars F.Rules Stats Wind Profile Meteogram Temp Stats Airport Information Weather charts Add Link Nearby VenuesMetar ALERT Operation Metar Decoded Social comments